Latest Coastal Weather Observations for Cape Grim

IDV60701

Issued at 5:45 am EST Friday 1 August 2014 (issued every 10 minutes, with the page automatically refreshed every 10 minutes)

About coastal observations | Map of coastal stations | Coastal observations for VIC | Marine services | Other Formats
Station Details ID: 091331 Name: CAPE GRIM Lat: -40.68 Lon: 144.69 Height: 86.0 m
Data from the previous 72 hours. | See also: Recent months at Cape Grim
Date/Time
EST
Temp

°C
Wind Pressure Rain
since 9am
mm
Weather Cloud Vis
km
Sea
Height
m
Swell
Dir
 
Speed
knots
Gust
knots
hPa Trend Height
m
Period
s
Dir
01/05:30am 7.6 W 30 42 992.4 - 11.8 - Partly cloudy - - - - -
01/05:12am 9.0 W 30 42 992.1 - 11.6 - Partly cloudy - - - - -
01/05:00am 8.8 W 32 38 992.1 - 11.6 - Partly cloudy - - - - -
01/04:36am 8.6 WNW 29 39 992.0 - 11.6 - Partly cloudy - - - - -
01/04:30am 8.3 WNW 28 35 992.1 - 11.6 - Partly cloudy - - - - -
01/04:02am 9.1 W 26 38 991.7 - 11.6 - Partly cloudy - - - - -
01/04:00am 9.0 W 27 35 991.9 - 11.6 - Partly cloudy - - - - -
01/03:46am 8.8 W 27 37 992.2 - 11.6 - Partly cloudy - - - - -
01/03:30am 8.6 W 30 38 992.2 - 11.6 - Partly cloudy - - - - -
01/03:00am 8.9 W 31 43 992.3 - 11.6 - Cloudy - - - - -
01/02:50am 9.7 W 28 41 992.0 - 11.6 - Partly cloudy - - - - -
01/02:49am 9.5 W 26 34 992.0 - 11.6 - Partly cloudy - - - - -
01/02:30am 9.3 W 36 47 992.0 - 11.6 - Partly cloudy - - - - -
01/02:13am 8.7 WNW 37 50 991.8 - 11.6 - Partly cloudy - - - - -
01/02:11am 9.1 WNW 37 44 991.9 - 11.6 - Partly cloudy - - - - -
01/02:02am 8.7 W 26 41 992.1 - 11.6 - Partly cloudy - - - - -
01/02:00am 8.6 W 25 33 992.3 - 11.6 - Partly cloudy - - - - -
01/01:34am 7.8 WNW 27 37 992.5 - 11.2 - Partly cloudy - - - - -
01/01:30am 7.6 WNW 29 37 992.6 - 11.2 - Partly cloudy - - - - -
01/01:03am 6.5 WNW 34 44 992.8 - 11.2 - Partly cloudy - - - - -
01/01:01am 7.4 WNW 33 40 992.9 - 11.0 - Partly cloudy - - - - -
01/01:00am 7.7 W 20 40 993.0 - 10.8 - Partly cloudy - - - - -
01/12:32am 8.9 W 21 33 992.7 - 10.6 - Partly cloudy - - - - -
01/12:30am 8.8 W 20 27 992.8 - 10.6 - Partly cloudy - - - - -
01/12:00am 9.0 W 23 33 992.7 - 10.4 - Partly cloudy - - - - -
 
Date/Time
EST
Temp

°C
Wind Pressure Rain
since 9am
mm
Weather Cloud Vis
km
Sea
Height
m
Swell
Dir
 
Speed
knots
Gust
knots
hPa Trend Height
m
Period
s
Dir
31/11:30pm 8.7 W 29 42 992.5 - 10.4 - Partly cloudy - - - - -
31/11:00pm 8.3 W 30 46 992.4 - 10.4 - Partly cloudy - - - - -
31/10:30pm 7.5 W 28 39 992.3 - 10.4 - Partly cloudy - - - - -
31/10:00pm 8.3 W 32 46 991.5 - 10.4 - Partly cloudy - - - - -
31/09:30pm 8.1 W 29 42 991.6 - 10.4 - Partly cloudy - - - - -
31/09:00pm 7.9 W 29 41 991.1 - 10.4 Recent precip. Mostly cloudy - - - - -
31/08:30pm 8.1 W 33 50 990.4 - 9.4 - Partly cloudy - - - - -
31/08:00pm 9.3 W 33 51 990.0 - 9.4 - Partly cloudy - - - - -
31/07:57pm 9.0 W 35 51 989.7 - 9.4 - Partly cloudy - - - - -
31/07:31pm 8.6 W 31 41 989.9 - 9.4 - Partly cloudy - - - - -
31/07:30pm 8.3 W 32 41 989.8 - 9.4 - Partly cloudy - - - - -
31/07:23pm 8.3 W 31 41 989.5 - 9.4 - Partly cloudy - - - - -
31/07:21pm 8.0 W 31 40 989.4 - 9.4 - Partly cloudy - - - - -
31/07:00pm 9.1 W 41 54 989.1 - 9.4 - Partly cloudy - - - - -
31/06:30pm 7.5 W 40 53 989.0 - 9.4 - Partly cloudy - - - - -
31/06:09pm 8.0 W 33 48 988.7 - 9.4 - Partly cloudy - - - - -
31/06:04pm 8.0 W 33 39 988.7 - 9.4 - Partly cloudy - - - - -
31/06:00pm 7.6 W 43 58 988.8 - 9.4 Recent precip. Mostly cloudy - - - - -
31/05:54pm 8.5 W 47 58 988.5 - 9.4 - Partly cloudy - - - - -
31/05:52pm 9.0 W 47 56 988.2 - 9.4 - Partly cloudy - - - - -
31/05:30pm 8.3 W 35 54 988.2 - 9.4 - Partly cloudy - - - - -
31/05:00pm 9.1 W 37 48 988.0 - 9.0 - Partly cloudy - - - - -
31/04:53pm 8.8 W 35 47 987.9 - 9.0 - Partly cloudy - - - - -
31/04:40pm 9.2 W 46 56 987.6 - 9.0 - Partly cloudy - - - - -
31/04:39pm 8.9 W 47 56 987.5 - 9.0 - Partly cloudy - - - - -
31/04:30pm 10.2 W 35 49 987.5 - 9.0 - Partly cloudy - - - - -
31/04:00pm 8.3 W 33 43 987.4 - 9.0 - Partly cloudy - - - - -
31/03:56pm 8.2 W 31 43 987.4 - 9.0 - Partly cloudy - - - - -
31/03:30pm 9.9 W 42 55 986.3 - 8.0 - Partly cloudy - - - - -
31/03:16pm 9.4 W 42 63 986.3 - 7.8 - Partly cloudy - - - - -
31/03:00pm 10.4 W 40 53 986.4 - 7.8 Recent precip. Cloudy - - - - -
31/02:30pm 10.3 WNW 40 55 985.9 - 7.8 - Partly cloudy - - - - -
31/02:00pm 9.4 W 38 49 986.4 - 7.6 - Partly cloudy - - - - -
31/01:44pm 8.6 W 34 44 986.2 - 7.6 - Partly cloudy - - - - -
31/01:43pm 8.6 W 32 41 986.3 - 7.6 - Partly cloudy - - - - -
31/01:30pm 8.4 W 44 58 986.8 - 7.4 - Partly cloudy - - - - -
31/01:21pm 9.1 W 39 53 986.8 - 7.0 - Partly cloudy - - - - -
31/01:00pm 9.5 W 25 37 986.5 - 6.6 - Partly cloudy - - - - -
31/12:30pm 9.0 W 23 33 987.2 - 5.8 - Partly cloudy - - - - -
31/12:00pm 9.2 W 21 35 986.6 - 5.2 Rain Cloudy - - - - -
31/11:30am 9.3 WSW 23 40 986.9 - 4.0 - Partly cloudy - - - - -
31/11:14am 10.0 W 23 47 986.4 - 3.2 - Partly cloudy - - - - -
31/11:10am 10.2 W 22 33 986.5 - 2.4 - Partly cloudy - - - - -
31/11:09am 10.3 W 21 28 986.2 - 2.0 - Partly cloudy - - - - -
31/11:07am 10.6 W 35 51 986.2 - 0.8 - Partly cloudy - - - - -
31/11:00am 13.1 NNW 43 62 985.3 - 0.2 - Partly cloudy - - - - -
31/10:30am 13.7 NNW 48 63 986.0 - 0.0 - Partly cloudy - - - - -
31/10:00am 13.7 NNW 44 57 986.6 - 0.0 - Partly cloudy - - - - -
31/09:30am 13.5 NNW 42 53 987.6 - 0.0 - Partly cloudy - - - - -
31/09:00am 13.6 NNW 42 54 987.9 - 6.2 - Cloudy - - - - -
31/08:30am 13.9 NNW 37 53 988.6 - 6.2 - Partly cloudy - - - - -
31/08:00am 13.4 NNW 37 48 989.5 - 6.2 - Partly cloudy - - - - -
31/07:30am 13.3 NW 37 52 990.0 - 6.2 - Partly cloudy - - - - -
31/07:00am 13.8 NW 35 48 990.6 - 6.2 - Partly cloudy - - - - -
31/06:30am 13.5 NW 35 49 991.2 - 6.2 - Partly cloudy - - - - -
31/06:00am 13.6 NW 38 49 991.8 - 6.2 Recent precip. Cloudy - - - - -
31/05:30am 13.5 NW 39 50 992.0 - 6.2 - Partly cloudy - - - - -
31/05:00am 13.6 NW 37 50 992.5 - 6.0 - Partly cloudy - - - - -
31/04:30am 13.5 NW 37 49 993.1 - 6.0 - Partly cloudy - - - - -
31/04:00am 13.5 NW 31 45 993.9 - 6.0 - Partly cloudy - - - - -
31/03:30am 13.6 NW 34 48 994.3 - 6.0 - Partly cloudy - - - - -
31/03:00am 13.5 NW 41 52 994.7 - 6.0 - Cloudy - - - - -
31/02:51am 13.5 NW 42 52 995.0 - 6.0 - Partly cloudy - - - - -
31/02:48am 13.4 NW 44 52 995.0 - 6.0 - Partly cloudy - - - - -
31/02:30am 13.7 NW 33 45 995.1 - 6.0 - Partly cloudy - - - - -
31/02:00am 13.3 WNW 36 48 995.4 - 6.0 - Partly cloudy - - - - -
31/01:46am 12.2 W 32 44 995.5 - 5.6 - Partly cloudy - - - - -
31/01:30am 12.2 WNW 34 42 995.9 - 4.8 - Partly cloudy - - - - -
31/01:24am 12.5 WNW 35 40 996.0 - 4.6 - Partly cloudy - - - - -
31/01:00am 12.7 WNW 45 55 995.9 - 3.6 - Partly cloudy - - - - -
31/12:30am 12.3 WNW 39 49 996.3 - 3.4 - Partly cloudy - - - - -
31/12:08am 12.6 WNW 42 52 997.0 - 2.4 - Partly cloudy - - - - -
31/12:07am 13.1 WNW 43 52 996.9 - 2.4 - Partly cloudy - - - - -
31/12:00am 13.2 WNW 32 44 997.1 - 2.2 Rain Cloudy - - - - -
 
Date/Time
EST
Temp

°C
Wind Pressure Rain
since 9am
mm
Weather Cloud Vis
km
Sea
Height
m
Swell
Dir
 
Speed
knots
Gust
knots
hPa Trend Height
m
Period
s
Dir
30/11:39pm 13.1 NW 34 45 997.6 - 2.0 - Partly cloudy - - - - -
30/11:30pm 12.9 NW 34 43 997.8 - 2.0 - Partly cloudy - - - - -
30/11:00pm 13.0 NW 33 43 998.2 - 2.0 - Partly cloudy - - - - -
30/10:30pm 13.6 NW 33 45 998.5 - 2.0 - Partly cloudy - - - - -
30/10:00pm 13.8 WNW 32 46 998.7 - 2.0 - Partly cloudy - - - - -
30/09:30pm 13.8 WNW 34 45 998.9 - 2.0 - Partly cloudy - - - - -
30/09:00pm 13.7 WNW 33 49 999.4 - 2.0 - Mostly clear - - - - -
30/08:30pm 13.5 WNW 37 48 999.3 - 2.0 - Partly cloudy - - - - -
30/08:00pm 14.1 WNW 36 48 999.6 - 2.0 - Partly cloudy - - - - -
30/07:34pm 13.8 WNW 34 44 999.6 - 2.0 - Partly cloudy - - - - -
30/07:30pm 13.8 WNW 35 44 999.5 - 2.0 - Partly cloudy - - - - -
30/07:04pm 13.9 WNW 38 48 999.5 - 2.0 - Partly cloudy - - - - -
30/07:00pm 14.1 WNW 39 48 999.7 - 2.0 - Partly cloudy - - - - -
30/06:30pm 13.5 WNW 36 46 999.7 - 2.0 - Partly cloudy - - - - -
30/06:00pm 12.5 WNW 37 57 1000.0 - 1.8 Rain Cloudy - - - - -
30/05:57pm 12.5 WNW 34 52 999.9 - 1.6 - Partly cloudy - - - - -
30/05:30pm 13.9 WNW 31 42 1000.2 - 0.8 - Partly cloudy - - - - -
30/05:03pm 14.1 WNW 32 42 1000.3 - 0.8 - Partly cloudy - - - - -
30/05:00pm 14.0 WNW 33 42 1000.3 - 0.8 - Partly cloudy - - - - -
30/04:39pm 14.0 WNW 35 45 1000.2 - 0.8 - Partly cloudy - - - - -
30/04:30pm 14.0 WNW 34 43 1000.4 - 0.8 - Partly cloudy - - - - -
30/04:00pm 14.1 W 37 49 1000.5 - 0.8 - Partly cloudy - - - - -
30/03:42pm 13.9 W 33 43 1000.4 - 0.8 - Partly cloudy - - - - -
30/03:30pm 13.8 W 31 40 1000.6 - 0.8 - Partly cloudy - - - - -
30/03:04pm 14.2 WNW 32 45 1000.7 - 0.8 - Partly cloudy - - - - -
30/03:00pm 14.2 WNW 31 39 1000.8 - 0.8 - Cloudy - - - - -
30/02:31pm 14.3 WNW 34 44 1001.0 - 0.8 - Partly cloudy - - - - -
30/02:30pm 14.4 WNW 35 44 1000.9 - 0.8 - Partly cloudy - - - - -
30/02:00pm 14.4 W 30 41 1001.1 - 0.8 - Partly cloudy - - - - -
30/01:43pm 14.6 WNW 33 43 1001.1 - 0.8 - Partly cloudy - - - - -
30/01:30pm 14.2 WNW 34 42 1001.3 - 0.8 - Partly cloudy - - - - -
30/01:07pm 13.9 WNW 34 44 1001.5 - 0.8 - Partly cloudy - - - - -
30/01:00pm 14.0 WNW 34 43 1001.6 - 0.8 - Partly cloudy - - - - -
30/12:49pm 13.4 WNW 34 44 1001.6 - 0.8 - Partly cloudy - - - - -
30/12:30pm 13.2 WNW 33 41 1001.9 - 0.4 - Partly cloudy - - - - -
30/12:00pm 13.9 WNW 33 43 1002.6 - 0.4 - Cloudy - - - - -
30/11:37am 13.6 WNW 29 41 1002.9 - 0.4 - Partly cloudy - - - - -
30/11:30am 13.8 WNW 31 37 1003.1 - 0.4 - Partly cloudy - - - - -
30/11:00am 13.3 WNW 34 44 1003.5 - 0.4 - Partly cloudy - - - - -
30/10:30am 13.5 WNW 31 42 1003.6 - 0.0 - Partly cloudy - - - - -
30/10:00am 13.4 WNW 32 42 1003.7 - 0.0 - Partly cloudy - - - - -
30/09:45am 13.5 WNW 30 40 1003.5 - 0.0 - Partly cloudy - - - - -
30/09:30am 13.5 WNW 33 41 1003.4 - 0.0 - Partly cloudy - - - - -
30/09:00am 13.2 WNW 31 42 1003.4 - 1.2 - Cloudy - - - - -
30/08:45am 13.2 WNW 33 43 1003.2 - 1.2 - Partly cloudy - - - - -
30/08:30am 13.2 WNW 33 40 1003.3 - 1.2 - Partly cloudy - - - - -
30/08:00am 12.8 W 30 43 1003.2 - 1.2 - Partly cloudy - - - - -
30/07:30am 12.6 WNW 29 39 1003.0 - 1.2 - Partly cloudy - - - - -
30/07:04am 12.3 WNW 28 39 1003.3 - 1.2 - Partly cloudy - - - - -
30/07:00am 12.4 WNW 29 36 1003.4 - 1.2 - Partly cloudy - - - - -
30/06:40am 12.3 WNW 27 37 1003.1 - 1.2 - Partly cloudy - - - - -
30/06:30am 12.4 WNW 30 37 1003.0 - 1.2 - Partly cloudy - - - - -
30/06:00am 12.8 W 30 37 1002.8 - 1.2 - Mostly cloudy - - - - -
30/05:37am 13.0 W 29 39 1002.9 - 1.2 - Partly cloudy - - - - -
30/05:30am 12.8 W 30 38 1002.9 - 1.2 - Partly cloudy - - - - -
30/05:05am 12.6 W 29 39 1002.7 - 1.2 - Partly cloudy - - - - -
30/05:00am 12.8 W 29 37 1002.9 - 1.2 - Partly cloudy - - - - -
30/04:30am 12.6 W 28 38 1002.7 - 1.2 - Partly cloudy - - - - -
30/04:00am 12.3 W 27 40 1003.0 - 1.2 - Partly cloudy - - - - -
30/03:30am 12.3 W 29 43 1003.0 - 1.2 - Partly cloudy - - - - -
30/03:00am 12.4 W 29 45 1003.0 - 1.2 - Cloudy - - - - -
30/02:30am 12.5 W 27 41 1002.9 - 1.2 - Partly cloudy - - - - -
30/02:00am 12.6 W 28 40 1002.5 - 1.2 - Partly cloudy - - - - -
30/01:30am 12.7 W 29 43 1002.1 - 1.2 - Partly cloudy - - - - -
30/01:00am 12.6 W 29 43 1001.8 - 1.2 - Partly cloudy - - - - -
30/12:30am 12.7 W 31 44 1001.2 - 1.2 - Partly cloudy - - - - -
30/12:00am 12.9 W 32 46 1000.9 - 1.2 - Mostly cloudy - - - - -
 
Date/Time
EST
Temp

°C
Wind Pressure Rain
since 9am
mm
Weather Cloud Vis
km
Sea
Height
m
Swell
Dir
 
Speed
knots
Gust
knots
hPa Trend Height
m
Period
s
Dir
29/11:30pm 13.1 W 33 50 1000.4 - 1.2 - Partly cloudy - - - - -
29/11:00pm 13.3 W 33 45 1000.5 - 1.2 - Partly cloudy - - - - -
29/10:30pm 13.3 W 31 43 999.8 - 1.2 - Partly cloudy - - - - -
29/10:00pm 13.2 W 33 45 999.8 - 1.2 - Partly cloudy - - - - -
29/09:41pm 13.3 W 39 51 999.1 - 1.2 - Partly cloudy - - - - -
29/09:38pm 13.3 W 52 63 999.0 - 1.2 - Partly cloudy - - - - -
29/09:30pm 13.4 W 39 57 999.3 - 1.2 - Partly cloudy - - - - -
29/09:16pm 13.3 W 42 52 999.2 - 1.2 - Partly cloudy - - - - -
29/09:13pm 13.2 W 45 52 999.1 - 1.2 - Partly cloudy - - - - -
29/09:00pm 13.4 W 34 50 999.2 - 1.2 - Cloudy - - - - -
29/08:30pm 13.3 W 36 50 998.8 - 1.2 - Partly cloudy - - - - -
29/08:00pm 13.1 W 38 50 998.4 - 1.2 - Partly cloudy - - - - -
29/07:30pm 13.5 W 45 60 997.6 - 1.2 - Partly cloudy - - - - -
29/07:19pm 13.7 W 47 57 997.5 - 1.2 - Partly cloudy - - - - -
29/07:00pm 13.6 W 36 53 997.2 - 1.2 - Partly cloudy - - - - -
29/06:54pm 13.5 W 34 44 997.4 - 1.2 - Partly cloudy - - - - -
29/06:30pm 13.7 W 45 57 996.7 - 1.2 - Partly cloudy - - - - -
29/06:00pm 13.7 W 41 58 996.1 - 1.2 - Cloudy - - - - -
29/05:30pm 13.9 W 43 55 995.8 - 1.2 - Partly cloudy - - - - -
29/05:00pm 13.8 W 43 57 995.3 - 1.2 - Partly cloudy - - - - -
29/04:30pm 13.7 WNW 46 58 994.8 - 1.2 - Partly cloudy - - - - -
29/04:10pm 13.8 WNW 41 61 994.5 - 1.2 - Partly cloudy - - - - -
29/04:01pm 13.4 WNW 40 50 994.4 - 1.2 - Partly cloudy - - - - -
29/04:00pm 13.4 WNW 41 50 994.4 - 1.2 - Partly cloudy - - - - -
29/03:30pm 14.0 WNW 37 50 995.0 - 1.2 - Partly cloudy - - - - -
29/03:24pm 14.0 WNW 36 46 995.1 - 1.2 - Partly cloudy - - - - -
29/03:22pm 14.0 WNW 34 41 995.2 - 1.2 - Partly cloudy - - - - -
29/03:00pm 14.1 W 44 55 994.8 - 1.2 - Cloudy - - - - -
29/02:30pm 14.2 WNW 40 53 994.5 - 1.2 - Partly cloudy - - - - -
29/02:00pm 14.0 WNW 37 49 994.9 - 1.2 - Partly cloudy - - - - -
29/01:42pm 13.4 WNW 34 49 995.3 - 1.2 - Partly cloudy - - - - -
29/01:30pm 13.2 WNW 35 44 995.4 - 1.2 - Partly cloudy - - - - -
29/01:00pm 12.5 W 34 44 995.9 - 1.2 - Partly cloudy - - - - -
29/12:31pm 13.1 W 35 45 996.4 - 1.2 - Partly cloudy - - - - -
29/12:30pm 13.0 W 36 45 996.4 - 1.2 - Partly cloudy - - - - -
29/12:00pm 13.7 W 38 49 996.7 - 1.0 - Cloudy - - - - -
29/11:30am 13.9 W 34 45 997.1 - 1.0 - Partly cloudy - - - - -
29/11:00am 13.8 WNW 38 49 996.9 - 1.0 - Partly cloudy - - - - -
29/10:41am 13.8 WNW 37 47 996.9 - 1.0 - Partly cloudy - - - - -
29/10:30am 13.8 WNW 38 47 996.9 - 1.0 - Partly cloudy - - - - -
29/10:00am 13.4 WNW 36 47 997.0 - 1.0 - Partly cloudy - - - - -
29/09:30am 13.5 WNW 32 45 997.3 - 1.0 - Partly cloudy - - - - -
29/09:00am 13.8 WNW 36 50 997.4 - 13.6 - Cloudy - - - - -
29/08:30am 13.6 WNW 37 49 997.5 - 13.6 - Partly cloudy - - - - -
29/08:00am 13.9 WNW 40 51 997.5 - 13.6 - Partly cloudy - - - - -
29/07:30am 13.7 WNW 39 51 997.2 - 13.6 - Partly cloudy - - - - -
29/07:00am 13.4 NW 39 53 997.1 - 13.2 - Partly cloudy - - - - -
29/06:30am 13.6 NW 40 54 996.9 - 12.8 - Partly cloudy - - - - -
29/06:20am 13.2 NW 37 49 996.8 - 12.6 - Partly cloudy - - - - -
29/06:11am 13.1 WNW 27 37 997.2 - 12.2 - Partly cloudy - - - - -
29/06:05am 13.3 NW 39 49 997.2 - 11.8 - Partly cloudy - - - - -
29/06:00am 13.5 NW 40 48 997.2 - 11.8 Recent precip. Cloudy - - - - -

Other Formats:

Comma delimited format used in spreadsheet applications
http://www.bom.gov.au/fwo/IDV60701/IDV60701.95954.axf

JavaScript Object Notation format (JSON) in row-major order
http://www.bom.gov.au/fwo/IDV60701/IDV60701.95954.json